sensor_id;sensor_type;location;lat;lon;timestamp;pressure;altitude;pressure_sealevel;temperature;humidity
10706;BME280;5404;42.656;23.336;2022-07-05T00:00:10;94890.59;;;22.68;100.00
10706;BME280;5404;42.656;23.336;2022-07-05T00:02:36;94894.44;;;22.67;100.00
10706;BME280;5404;42.656;23.336;2022-07-05T00:05:02;94878.03;;;22.56;100.00
10706;BME280;5404;42.656;23.336;2022-07-05T00:07:27;94881.97;;;22.62;100.00
10706;BME280;5404;42.656;23.336;2022-07-05T00:09:55;94883.84;;;22.58;100.00
10706;BME280;5404;42.656;23.336;2022-07-05T00:12:23;94882.66;;;22.56;99.38
10706;BME280;5404;42.656;23.336;2022-07-05T00:14:50;94886.56;;;22.58;99.16
10706;BME280;5404;42.656;23.336;2022-07-05T00:17:16;94884.59;;;22.55;99.38
10706;BME280;5404;42.656;23.336;2022-07-05T00:19:42;94881.09;;;22.55;100.00
10706;BME280;5404;42.656;23.336;2022-07-05T00:22:07;94877.09;;;22.49;100.00
10706;BME280;5404;42.656;23.336;2022-07-05T00:24:33;94874.41;;;22.49;100.00
10706;BME280;5404;42.656;23.336;2022-07-05T00:26:58;94887.59;;;22.50;100.00
10706;BME280;5404;42.656;23.336;2022-07-05T00:29:24;94881.81;;;22.52;100.00
10706;BME280;5404;42.656;23.336;2022-07-05T00:31:50;94869.28;;;22.44;100.00
10706;BME280;5404;42.656;23.336;2022-07-05T00:34:15;94855.88;;;22.28;100.00
10706;BME280;5404;42.656;23.336;2022-07-05T00:36:41;94873.41;;;22.34;100.00
10706;BME280;5404;42.656;23.336;2022-07-05T00:39:07;94883.75;;;22.25;100.00
10706;BME280;5404;42.656;23.336;2022-07-05T00:41:32;94883.28;;;22.20;100.00
10706;BME280;5404;42.656;23.336;2022-07-05T00:44:01;94876.03;;;22.01;100.00
10706;BME280;5404;42.656;23.336;2022-07-05T00:46:27;94877.69;;;22.09;100.00
10706;BME280;5404;42.656;23.336;2022-07-05T00:48:54;94887.59;;;21.98;100.00
10706;BME280;5404;42.656;23.336;2022-07-05T00:51:20;94890.72;;;22.00;100.00
10706;BME280;5404;42.656;23.336;2022-07-05T00:53:47;94876.66;;;21.91;100.00
10706;BME280;5404;42.656;23.336;2022-07-05T00:56:13;94873.63;;;21.73;100.00
10706;BME280;5404;42.656;23.336;2022-07-05T00:58:39;94870.13;;;21.73;100.00
10706;BME280;5404;42.656;23.336;2022-07-05T01:01:06;94864.41;;;21.78;100.00
10706;BME280;5404;42.656;23.336;2022-07-05T01:03:33;94885.22;;;21.74;100.00
10706;BME280;5404;42.656;23.336;2022-07-05T01:06:05;94866.44;;;21.62;100.00
10706;BME280;5404;42.656;23.336;2022-07-05T01:08:33;94873.97;;;21.49;100.00
10706;BME280;5404;42.656;23.336;2022-07-05T01:11:00;94876.13;;;21.40;100.00
10706;BME280;5404;42.656;23.336;2022-07-05T01:13:26;94887.81;;;21.22;100.00
10706;BME280;5404;42.656;23.336;2022-07-05T01:15:52;94889.66;;;21.18;100.00
10706;BME280;5404;42.656;23.336;2022-07-05T01:18:19;94898.81;;;21.10;100.00
10706;BME280;5404;42.656;23.336;2022-07-05T01:20:47;94892.28;;;21.14;100.00
10706;BME280;5404;42.656;23.336;2022-07-05T01:23:13;94893.94;;;21.19;100.00
10706;BME280;5404;42.656;23.336;2022-07-05T01:25:40;94896.22;;;21.17;100.00
10706;BME280;5404;42.656;23.336;2022-07-05T01:28:06;94906.00;;;21.02;100.00
10706;BME280;5404;42.656;23.336;2022-07-05T01:30:34;94910.69;;;20.86;100.00
10706;BME280;5404;42.656;23.336;2022-07-05T01:33:00;94920.09;;;20.92;100.00
10706;BME280;5404;42.656;23.336;2022-07-05T01:35:25;94918.03;;;20.85;100.00
10706;BME280;5404;42.656;23.336;2022-07-05T01:37:52;94914.00;;;20.79;100.00
10706;BME280;5404;42.656;23.336;2022-07-05T01:40:19;94916.38;;;20.81;100.00
10706;BME280;5404;42.656;23.336;2022-07-05T01:42:45;94912.47;;;20.78;100.00
10706;BME280;5404;42.656;23.336;2022-07-05T01:45:11;94909.03;;;20.81;100.00
10706;BME280;5404;42.656;23.336;2022-07-05T01:47:41;94905.59;;;20.84;100.00
10706;BME280;5404;42.656;23.336;2022-07-05T01:50:13;94901.84;;;20.89;100.00
10706;BME280;5404;42.656;23.336;2022-07-05T01:52:42;94909.25;;;20.92;100.00
10706;BME280;5404;42.656;23.336;2022-07-05T01:55:09;94901.13;;;20.92;100.00
10706;BME280;5404;42.656;23.336;2022-07-05T01:57:34;94890.50;;;20.83;100.00
10706;BME280;5404;42.656;23.336;2022-07-05T02:00:00;94899.06;;;20.85;100.00
10706;BME280;5404;42.656;23.336;2022-07-05T02:02:25;94896.50;;;20.93;100.00
10706;BME280;5404;42.656;23.336;2022-07-05T02:04:51;94898.84;;;20.94;100.00
10706;BME280;5404;42.656;23.336;2022-07-05T02:07:16;94900.25;;;20.88;100.00
10706;BME280;5404;42.656;23.336;2022-07-05T02:09:41;94898.72;;;20.87;100.00
10706;BME280;5404;42.656;23.336;2022-07-05T02:12:07;94893.19;;;20.64;100.00
10706;BME280;5404;42.656;23.336;2022-07-05T02:14:33;94894.34;;;20.63;100.00
10706;BME280;5404;42.656;23.336;2022-07-05T02:16:59;94898.19;;;20.62;100.00
10706;BME280;5404;42.656;23.336;2022-07-05T02:19:24;94896.47;;;20.54;100.00
10706;BME280;5404;42.656;23.336;2022-07-05T02:21:49;94904.97;;;20.53;100.00
10706;BME280;5404;42.656;23.336;2022-07-05T02:24:15;94900.53;;;20.45;100.00
10706;BME280;5404;42.656;23.336;2022-07-05T02:26:40;94909.41;;;20.45;100.00
10706;BME280;5404;42.656;23.336;2022-07-05T02:29:06;94915.91;;;20.41;100.00
10706;BME280;5404;42.656;23.336;2022-07-05T02:31:32;94909.22;;;20.19;100.00
10706;BME280;5404;42.656;23.336;2022-07-05T02:33:58;94919.94;;;20.16;100.00
10706;BME280;5404;42.656;23.336;2022-07-05T02:36:24;94920.28;;;20.14;100.00
10706;BME280;5404;42.656;23.336;2022-07-05T02:38:49;94915.06;;;20.06;100.00
10706;BME280;5404;42.656;23.336;2022-07-05T02:41:15;94912.34;;;19.90;100.00
10706;BME280;5404;42.656;23.336;2022-07-05T02:43:40;94931.91;;;19.84;100.00
10706;BME280;5404;42.656;23.336;2022-07-05T02:46:07;94923.78;;;19.84;100.00
10706;BME280;5404;42.656;23.336;2022-07-05T02:48:34;94936.28;;;19.88;100.00
10706;BME280;5404;42.656;23.336;2022-07-05T02:51:00;94942.09;;;19.90;100.00
10706;BME280;5404;42.656;23.336;2022-07-05T02:53:26;94946.13;;;19.81;100.00
10706;BME280;5404;42.656;23.336;2022-07-05T02:55:52;94945.69;;;19.79;100.00
10706;BME280;5404;42.656;23.336;2022-07-05T02:58:17;94941.84;;;19.80;100.00
10706;BME280;5404;42.656;23.336;2022-07-05T03:00:47;94923.44;;;19.69;100.00
10706;BME280;5404;42.656;23.336;2022-07-05T03:03:13;94940.81;;;19.84;100.00
10706;BME280;5404;42.656;23.336;2022-07-05T03:05:39;94939.66;;;19.85;100.00
10706;BME280;5404;42.656;23.336;2022-07-05T03:08:05;94947.69;;;19.82;100.00
10706;BME280;5404;42.656;23.336;2022-07-05T03:10:31;94943.25;;;19.89;100.00
10706;BME280;5404;42.656;23.336;2022-07-05T03:12:56;94938.09;;;20.00;100.00
10706;BME280;5404;42.656;23.336;2022-07-05T03:15:22;94942.91;;;20.06;100.00
10706;BME280;5404;42.656;23.336;2022-07-05T03:17:47;94938.88;;;20.16;100.00
10706;BME280;5404;42.656;23.336;2022-07-05T03:20:13;94943.72;;;20.22;100.00
10706;BME280;5404;42.656;23.336;2022-07-05T03:22:38;94940.66;;;20.58;100.00
10706;BME280;5404;42.656;23.336;2022-07-05T03:25:05;94932.66;;;21.00;100.00
10706;BME280;5404;42.656;23.336;2022-07-05T03:27:30;94921.28;;;21.10;100.00
10706;BME280;5404;42.656;23.336;2022-07-05T03:29:56;94899.91;;;21.28;100.00
10706;BME280;5404;42.656;23.336;2022-07-05T03:32:21;94923.38;;;21.62;100.00
10706;BME280;5404;42.656;23.336;2022-07-05T03:34:47;94914.25;;;21.70;100.00
10706;BME280;5404;42.656;23.336;2022-07-05T03:37:12;94917.91;;;21.58;100.00
10706;BME280;5404;42.656;23.336;2022-07-05T03:39:38;94914.25;;;21.28;100.00
10706;BME280;5404;42.656;23.336;2022-07-05T03:42:03;94923.91;;;21.07;100.00
10706;BME280;5404;42.656;23.336;2022-07-05T03:44:29;94905.28;;;20.86;100.00
10706;BME280;5404;42.656;23.336;2022-07-05T03:46:57;94923.31;;;20.98;100.00
10706;BME280;5404;42.656;23.336;2022-07-05T03:49:22;94921.97;;;21.07;100.00
10706;BME280;5404;42.656;23.336;2022-07-05T03:51:48;94912.41;;;21.13;100.00
10706;BME280;5404;42.656;23.336;2022-07-05T03:54:13;94914.47;;;21.20;100.00
10706;BME280;5404;42.656;23.336;2022-07-05T03:56:38;94904.91;;;21.26;100.00
10706;BME280;5404;42.656;23.336;2022-07-05T03:59:04;94900.84;;;21.35;100.00
10706;BME280;5404;42.656;23.336;2022-07-05T04:01:30;94910.00;;;21.50;100.00
10706;BME280;5404;42.656;23.336;2022-07-05T04:03:55;94912.19;;;21.63;100.00
10706;BME280;5404;42.656;23.336;2022-07-05T04:06:21;94918.50;;;21.71;100.00
10706;BME280;5404;42.656;23.336;2022-07-05T04:08:46;94907.34;;;21.76;100.00
10706;BME280;5404;42.656;23.336;2022-07-05T04:11:11;94902.19;;;21.67;100.00
10706;BME280;5404;42.656;23.336;2022-07-05T04:13:39;94914.31;;;21.73;100.00
10706;BME280;5404;42.656;23.336;2022-07-05T04:16:05;94908.09;;;21.73;100.00
10706;BME280;5404;42.656;23.336;2022-07-05T04:18:32;94919.28;;;21.90;100.00
10706;BME280;5404;42.656;23.336;2022-07-05T04:20:57;94920.53;;;21.96;100.00
10706;BME280;5404;42.656;23.336;2022-07-05T04:23:23;94910.88;;;21.99;100.00
10706;BME280;5404;42.656;23.336;2022-07-05T04:25:48;94903.53;;;22.00;100.00
10706;BME280;5404;42.656;23.336;2022-07-05T04:28:14;94910.63;;;22.08;100.00
10706;BME280;5404;42.656;23.336;2022-07-05T04:30:39;94905.56;;;22.06;100.00
10706;BME280;5404;42.656;23.336;2022-07-05T04:33:05;94908.16;;;21.99;100.00
10706;BME280;5404;42.656;23.336;2022-07-05T04:35:30;94907.44;;;22.02;100.00
10706;BME280;5404;42.656;23.336;2022-07-05T04:37:55;94896.94;;;22.01;100.00
10706;BME280;5404;42.656;23.336;2022-07-05T04:40:21;94908.16;;;21.99;100.00
10706;BME280;5404;42.656;23.336;2022-07-05T04:42:46;94909.03;;;22.07;100.00
10706;BME280;5404;42.656;23.336;2022-07-05T04:45:12;94904.88;;;22.13;100.00
10706;BME280;5404;42.656;23.336;2022-07-05T04:47:37;94908.13;;;21.95;100.00
10706;BME280;5404;42.656;23.336;2022-07-05T04:50:04;94909.53;;;22.12;100.00
10706;BME280;5404;42.656;23.336;2022-07-05T04:52:30;94896.69;;;22.09;100.00
10706;BME280;5404;42.656;23.336;2022-07-05T04:54:56;94901.19;;;22.24;100.00
10706;BME280;5404;42.656;23.336;2022-07-05T04:57:23;94902.75;;;22.25;100.00
10706;BME280;5404;42.656;23.336;2022-07-05T04:59:49;94909.97;;;22.40;100.00
10706;BME280;5404;42.656;23.336;2022-07-05T05:02:14;94913.34;;;22.56;100.00
10706;BME280;5404;42.656;23.336;2022-07-05T05:04:40;94911.13;;;22.65;100.00
10706;BME280;5404;42.656;23.336;2022-07-05T05:07:05;94909.28;;;22.73;100.00
10706;BME280;5404;42.656;23.336;2022-07-05T05:09:31;94912.09;;;22.80;100.00
10706;BME280;5404;42.656;23.336;2022-07-05T05:11:56;94911.53;;;22.97;100.00
10706;BME280;5404;42.656;23.336;2022-07-05T05:14:22;94910.78;;;23.00;100.00
10706;BME280;5404;42.656;23.336;2022-07-05T05:16:47;94912.81;;;23.06;100.00
10706;BME280;5404;42.656;23.336;2022-07-05T05:19:13;94906.97;;;23.04;100.00
10706;BME280;5404;42.656;23.336;2022-07-05T05:21:38;94914.81;;;23.09;100.00
10706;BME280;5404;42.656;23.336;2022-07-05T05:24:04;94917.06;;;23.04;100.00
10706;BME280;5404;42.656;23.336;2022-07-05T05:26:30;94918.47;;;22.94;100.00
10706;BME280;5404;42.656;23.336;2022-07-05T05:28:55;94915.13;;;23.04;100.00
10706;BME280;5404;42.656;23.336;2022-07-05T05:31:21;94917.91;;;23.08;100.00
10706;BME280;5404;42.656;23.336;2022-07-05T05:33:47;94917.91;;;23.11;100.00
10706;BME280;5404;42.656;23.336;2022-07-05T05:36:12;94909.00;;;23.11;100.00
10706;BME280;5404;42.656;23.336;2022-07-05T05:38:38;94913.22;;;23.08;100.00
10706;BME280;5404;42.656;23.336;2022-07-05T05:41:04;94915.41;;;22.96;100.00
10706;BME280;5404;42.656;23.336;2022-07-05T05:43:29;94904.22;;;23.01;100.00
10706;BME280;5404;42.656;23.336;2022-07-05T05:45:55;94914.88;;;22.83;100.00
10706;BME280;5404;42.656;23.336;2022-07-05T05:48:21;94908.81;;;22.67;100.00
10706;BME280;5404;42.656;23.336;2022-07-05T05:50:47;94912.00;;;22.73;100.00
10706;BME280;5404;42.656;23.336;2022-07-05T05:53:13;94917.56;;;22.83;100.00
10706;BME280;5404;42.656;23.336;2022-07-05T05:55:39;94908.13;;;22.74;100.00
10706;BME280;5404;42.656;23.336;2022-07-05T05:58:21;94918.81;;;22.89;100.00
10706;BME280;5404;42.656;23.336;2022-07-05T06:00:49;94908.03;;;22.96;100.00
10706;BME280;5404;42.656;23.336;2022-07-05T06:03:21;94909.31;;;23.06;100.00
10706;BME280;5404;42.656;23.336;2022-07-05T06:05:47;94927.31;;;23.18;100.00
10706;BME280;5404;42.656;23.336;2022-07-05T06:08:12;94926.56;;;23.21;100.00
10706;BME280;5404;42.656;23.336;2022-07-05T06:10:38;94917.41;;;23.32;100.00
10706;BME280;5404;42.656;23.336;2022-07-05T06:13:07;94923.59;;;23.29;100.00
10706;BME280;5404;42.656;23.336;2022-07-05T06:15:33;94927.56;;;23.35;100.00
10706;BME280;5404;42.656;23.336;2022-07-05T06:17:59;94923.59;;;23.29;100.00
10706;BME280;5404;42.656;23.336;2022-07-05T06:20:27;94927.34;;;23.21;100.00
10706;BME280;5404;42.656;23.336;2022-07-05T06:22:56;94920.53;;;23.34;100.00
10706;BME280;5404;42.656;23.336;2022-07-05T06:25:22;94929.56;;;23.42;100.00
10706;BME280;5404;42.656;23.336;2022-07-05T06:27:50;94931.31;;;23.27;100.00
10706;BME280;5404;42.656;23.336;2022-07-05T06:30:18;94936.25;;;23.51;100.00
10706;BME280;5404;42.656;23.336;2022-07-05T06:32:46;94930.94;;;23.62;100.00
10706;BME280;5404;42.656;23.336;2022-07-05T06:35:12;94922.00;;;23.61;100.00
10706;BME280;5404;42.656;23.336;2022-07-05T06:37:44;94930.38;;;23.86;100.00
10706;BME280;5404;42.656;23.336;2022-07-05T06:40:11;94926.94;;;23.92;100.00
10706;BME280;5404;42.656;23.336;2022-07-05T06:42:37;94915.06;;;24.07;100.00
10706;BME280;5404;42.656;23.336;2022-07-05T06:45:04;94921.31;;;24.11;100.00
10706;BME280;5404;42.656;23.336;2022-07-05T06:47:30;94915.94;;;24.22;100.00
10706;BME280;5404;42.656;23.336;2022-07-05T06:49:57;94927.34;;;24.38;100.00
10706;BME280;5404;42.656;23.336;2022-07-05T06:52:23;94922.03;;;24.56;100.00
10706;BME280;5404;42.656;23.336;2022-07-05T06:54:48;94915.44;;;24.60;100.00
10706;BME280;5404;42.656;23.336;2022-07-05T06:57:14;94911.31;;;24.84;100.00
10706;BME280;5404;42.656;23.336;2022-07-05T06:59:39;94913.66;;;24.89;100.00
10706;BME280;5404;42.656;23.336;2022-07-05T07:02:04;94907.81;;;24.80;100.00
10706;BME280;5404;42.656;23.336;2022-07-05T07:04:30;94892.13;;;24.66;100.00
10706;BME280;5404;42.656;23.336;2022-07-05T07:06:55;94895.44;;;25.00;100.00
10706;BME280;5404;42.656;23.336;2022-07-05T07:09:21;94891.16;;;24.99;100.00
10706;BME280;5404;42.656;23.336;2022-07-05T07:11:48;94899.41;;;25.20;100.00
10706;BME280;5404;42.656;23.336;2022-07-05T07:14:14;94906.06;;;25.29;100.00
10706;BME280;5404;42.656;23.336;2022-07-05T07:16:40;94902.63;;;25.43;100.00
10706;BME280;5404;42.656;23.336;2022-07-05T07:19:05;94907.69;;;25.45;100.00
10706;BME280;5404;42.656;23.336;2022-07-05T07:21:31;94906.94;;;25.58;100.00
10706;BME280;5404;42.656;23.336;2022-07-05T07:23:56;94915.91;;;25.55;100.00
10706;BME280;5404;42.656;23.336;2022-07-05T07:26:22;94915.06;;;25.41;100.00
10706;BME280;5404;42.656;23.336;2022-07-05T07:28:47;94915.09;;;25.48;100.00
10706;BME280;5404;42.656;23.336;2022-07-05T07:31:13;94919.06;;;25.64;100.00
10706;BME280;5404;42.656;23.336;2022-07-05T07:33:38;94908.53;;;25.77;100.00
10706;BME280;5404;42.656;23.336;2022-07-05T07:36:04;94906.59;;;25.84;100.00
10706;BME280;5404;42.656;23.336;2022-07-05T07:38:29;94899.56;;;25.90;100.00
10706;BME280;5404;42.656;23.336;2022-07-05T07:40:55;94901.19;;;26.05;100.00
10706;BME280;5404;42.656;23.336;2022-07-05T07:43:21;94878.94;;;26.07;100.00
10706;BME280;5404;42.656;23.336;2022-07-05T07:45:47;94896.50;;;26.20;100.00
10706;BME280;5404;42.656;23.336;2022-07-05T07:48:13;94884.41;;;26.17;100.00
10706;BME280;5404;42.656;23.336;2022-07-05T07:50:38;94898.03;;;26.38;100.00
10706;BME280;5404;42.656;23.336;2022-07-05T07:53:04;94904.66;;;26.55;100.00
10706;BME280;5404;42.656;23.336;2022-07-05T07:55:29;94892.53;;;26.81;100.00
10706;BME280;5404;42.656;23.336;2022-07-05T07:57:55;94899.59;;;26.57;100.00
10706;BME280;5404;42.656;23.336;2022-07-05T08:00:20;94891.34;;;26.64;100.00
10706;BME280;5404;42.656;23.336;2022-07-05T08:02:46;94899.94;;;26.77;100.00
10706;BME280;5404;42.656;23.336;2022-07-05T08:05:12;94897.22;;;26.80;100.00
10706;BME280;5404;42.656;23.336;2022-07-05T08:07:37;94910.47;;;26.85;100.00
10706;BME280;5404;42.656;23.336;2022-07-05T08:10:07;94899.88;;;27.01;100.00
10706;BME280;5404;42.656;23.336;2022-07-05T08:12:32;94907.25;;;27.11;100.00
10706;BME280;5404;42.656;23.336;2022-07-05T08:14:58;94896.66;;;27.34;100.00
10706;BME280;5404;42.656;23.336;2022-07-05T08:17:24;94898.19;;;27.35;100.00
10706;BME280;5404;42.656;23.336;2022-07-05T08:19:50;94888.78;;;27.40;100.00
10706;BME280;5404;42.656;23.336;2022-07-05T08:22:34;94886.44;;;27.38;100.00
10706;BME280;5404;42.656;23.336;2022-07-05T08:25:00;94891.50;;;27.43;100.00
10706;BME280;5404;42.656;23.336;2022-07-05T08:27:25;94884.44;;;27.49;100.00
10706;BME280;5404;42.656;23.336;2022-07-05T08:29:51;94871.91;;;27.48;100.00
10706;BME280;5404;42.656;23.336;2022-07-05T08:32:16;94896.34;;;27.84;100.00
10706;BME280;5404;42.656;23.336;2022-07-05T08:34:42;94885.78;;;27.86;100.00
10706;BME280;5404;42.656;23.336;2022-07-05T08:37:08;94878.09;;;27.67;100.00
10706;BME280;5404;42.656;23.336;2022-07-05T08:39:35;94867.31;;;27.97;100.00
10706;BME280;5404;42.656;23.336;2022-07-05T08:42:01;94874.56;;;28.21;100.00
10706;BME280;5404;42.656;23.336;2022-07-05T08:44:32;94884.06;;;28.53;100.00
10706;BME280;5404;42.656;23.336;2022-07-05T08:47:02;94880.38;;;28.71;97.13
10706;BME280;5404;42.656;23.336;2022-07-05T08:49:30;94879.41;;;28.91;95.01
10706;BME280;5404;42.656;23.336;2022-07-05T08:51:57;94873.84;;;28.95;94.32
10706;BME280;5404;42.656;23.336;2022-07-05T08:54:25;94868.84;;;29.23;94.97
10706;BME280;5404;42.656;23.336;2022-07-05T08:56:51;94858.84;;;29.36;91.08
10706;BME280;5404;42.656;23.336;2022-07-05T08:59:18;94866.34;;;29.62;90.08
10706;BME280;5404;42.656;23.336;2022-07-05T09:01:48;94864.16;;;29.81;89.83
10706;BME280;5404;42.656;23.336;2022-07-05T09:04:16;94856.56;;;29.88;88.40
10706;BME280;5404;42.656;23.336;2022-07-05T09:06:43;94853.69;;;29.95;87.33
10706;BME280;5404;42.656;23.336;2022-07-05T09:09:10;94856.53;;;31.23;80.38
10706;BME280;5404;42.656;23.336;2022-07-05T09:11:38;94852.28;;;34.32;55.94
10706;BME280;5404;42.656;23.336;2022-07-05T09:14:06;94851.78;;;35.05;47.86
10706;BME280;5404;42.656;23.336;2022-07-05T09:16:32;94841.78;;;37.15;40.83
10706;BME280;5404;42.656;23.336;2022-07-05T09:19:05;94855.06;;;37.47;38.47
10706;BME280;5404;42.656;23.336;2022-07-05T09:21:31;94832.88;;;39.16;34.88
10706;BME280;5404;42.656;23.336;2022-07-05T09:23:58;94848.03;;;38.77;33.68
10706;BME280;5404;42.656;23.336;2022-07-05T09:26:39;94834.63;;;39.42;31.41
10706;BME280;5404;42.656;23.336;2022-07-05T09:29:08;94830.03;;;39.98;31.52
10706;BME280;5404;42.656;23.336;2022-07-05T09:31:36;94831.75;;;41.71;28.84
10706;BME280;5404;42.656;23.336;2022-07-05T09:39:19;94836.38;;;44.58;24.66
10706;BME280;5404;42.656;23.336;2022-07-05T09:44:44;94836.09;;;42.76;24.73
10706;BME280;5404;42.656;23.336;2022-07-05T09:47:11;94828.94;;;42.33;26.38
10706;BME280;5404;42.656;23.336;2022-07-05T09:49:40;94827.47;;;42.06;25.53
10706;BME280;5404;42.656;23.336;2022-07-05T09:52:07;94822.28;;;41.17;26.52
10706;BME280;5404;42.656;23.336;2022-07-05T09:54:32;94810.59;;;41.64;26.31
10706;BME280;5404;42.656;23.336;2022-07-05T09:56:58;94817.53;;;42.36;26.36
10706;BME280;5404;42.656;23.336;2022-07-05T09:59:23;94813.38;;;43.27;24.91
10706;BME280;5404;42.656;23.336;2022-07-05T10:01:50;94813.81;;;45.49;22.89
10706;BME280;5404;42.656;23.336;2022-07-05T10:04:16;94815.50;;;43.99;24.51
10706;BME280;5404;42.656;23.336;2022-07-05T10:06:42;94811.66;;;44.24;24.21
10706;BME280;5404;42.656;23.336;2022-07-05T10:09:09;94799.00;;;42.55;25.47
10706;BME280;5404;42.656;23.336;2022-07-05T10:11:39;94801.06;;;42.55;26.16
10706;BME280;5404;42.656;23.336;2022-07-05T10:14:10;94803.91;;;42.60;26.75
10706;BME280;5404;42.656;23.336;2022-07-05T10:16:37;94797.09;;;43.81;25.29
10706;BME280;5404;42.656;23.336;2022-07-05T10:19:04;94788.09;;;44.60;24.56
10706;BME280;5404;42.656;23.336;2022-07-05T10:21:32;94785.03;;;46.26;23.28
10706;BME280;5404;42.656;23.336;2022-07-05T10:23:58;94788.47;;;45.84;23.65
10706;BME280;5404;42.656;23.336;2022-07-05T10:26:24;94796.84;;;47.34;21.63
10706;BME280;5404;42.656;23.336;2022-07-05T10:28:52;94791.84;;;47.22;20.99
10706;BME280;5404;42.656;23.336;2022-07-05T10:31:18;94780.63;;;44.68;23.26
10706;BME280;5404;42.656;23.336;2022-07-05T10:33:45;94786.00;;;46.05;22.42
10706;BME280;5404;42.656;23.336;2022-07-05T10:36:11;94772.97;;;45.66;22.53
10706;BME280;5404;42.656;23.336;2022-07-05T10:38:39;94786.81;;;45.24;22.63
10706;BME280;5404;42.656;23.336;2022-07-05T10:41:08;94763.03;;;41.69;26.04
10706;BME280;5404;42.656;23.336;2022-07-05T10:43:34;94764.91;;;41.01;27.15
10706;BME280;5404;42.656;23.336;2022-07-05T10:46:00;94764.16;;;41.26;26.82
10706;BME280;5404;42.656;23.336;2022-07-05T10:48:28;94761.44;;;40.66;27.80
10706;BME280;5404;42.656;23.336;2022-07-05T10:51:14;94759.53;;;41.49;27.04
10706;BME280;5404;42.656;23.336;2022-07-05T10:58:39;94752.28;;;38.89;31.86
10706;BME280;5404;42.656;23.336;2022-07-05T11:06:31;94746.97;;;37.82;29.59
10706;BME280;5404;42.656;23.336;2022-07-05T11:14:00;94734.09;;;40.15;30.11
10706;BME280;5404;42.656;23.336;2022-07-05T11:16:31;94734.25;;;39.57;30.63
10706;BME280;5404;42.656;23.336;2022-07-05T11:19:14;94727.28;;;39.67;31.89
10706;BME280;5404;42.656;23.336;2022-07-05T11:22:05;94716.25;;;35.90;41.74
10706;BME280;5404;42.656;23.336;2022-07-05T11:24:37;94717.69;;;34.50;48.75
10706;BME280;5404;42.656;23.336;2022-07-05T11:27:10;94727.41;;;34.98;47.80
10706;BME280;5404;42.656;23.336;2022-07-05T11:29:42;94734.28;;;34.72;47.97
10706;BME280;5404;42.656;23.336;2022-07-05T11:32:10;94717.31;;;33.67;51.01
10706;BME280;5404;42.656;23.336;2022-07-05T11:34:37;94730.75;;;33.15;54.83
10706;BME280;5404;42.656;23.336;2022-07-05T11:37:24;94728.38;;;32.88;55.65
10706;BME280;5404;42.656;23.336;2022-07-05T11:42:35;94713.88;;;33.26;53.10
10706;BME280;5404;42.656;23.336;2022-07-05T11:45:05;94698.03;;;33.01;52.49
10706;BME280;5404;42.656;23.336;2022-07-05T11:47:31;94711.84;;;33.01;52.58
10706;BME280;5404;42.656;23.336;2022-07-05T11:49:57;94707.91;;;33.27;53.01
10706;BME280;5404;42.656;23.336;2022-07-05T11:52:27;94710.03;;;33.48;48.78
10706;BME280;5404;42.656;23.336;2022-07-05T11:54:53;94699.81;;;33.70;49.64
10706;BME280;5404;42.656;23.336;2022-07-05T11:57:19;94693.25;;;33.89;49.63
10706;BME280;5404;42.656;23.336;2022-07-05T11:59:46;94697.03;;;33.83;48.22
10706;BME280;5404;42.656;23.336;2022-07-05T12:02:11;94695.28;;;33.01;51.43
10706;BME280;5404;42.656;23.336;2022-07-05T12:04:37;94685.69;;;32.93;53.90
10706;BME280;5404;42.656;23.336;2022-07-05T12:07:03;94683.31;;;32.79;54.53
10706;BME280;5404;42.656;23.336;2022-07-05T12:09:31;94682.47;;;33.20;52.64
10706;BME280;5404;42.656;23.336;2022-07-05T12:12:19;94677.78;;;33.45;51.30
10706;BME280;5404;42.656;23.336;2022-07-05T12:15:04;94672.53;;;33.22;53.79
10706;BME280;5404;42.656;23.336;2022-07-05T12:17:33;94676.66;;;32.64;56.20
10706;BME280;5404;42.656;23.336;2022-07-05T12:19:59;94672.00;;;33.27;57.86
10706;BME280;5404;42.656;23.336;2022-07-05T12:22:35;94668.63;;;33.82;54.27
10706;BME280;5404;42.656;23.336;2022-07-05T12:25:02;94668.16;;;33.96;52.03
10706;BME280;5404;42.656;23.336;2022-07-05T12:27:29;94671.72;;;33.84;49.90
10706;BME280;5404;42.656;23.336;2022-07-05T12:29:56;94659.41;;;33.85;49.97
10706;BME280;5404;42.656;23.336;2022-07-05T12:32:22;94642.09;;;34.19;48.64
10706;BME280;5404;42.656;23.336;2022-07-05T12:34:48;94652.06;;;34.60;50.75
10706;BME280;5404;42.656;23.336;2022-07-05T12:37:26;94663.06;;;34.94;46.67
10706;BME280;5404;42.656;23.336;2022-07-05T12:40:07;94648.13;;;34.91;45.53
10706;BME280;5404;42.656;23.336;2022-07-05T12:42:38;94655.13;;;34.40;47.41
10706;BME280;5404;42.656;23.336;2022-07-05T12:45:11;94660.09;;;34.24;49.17
10706;BME280;5404;42.656;23.336;2022-07-05T12:47:52;94653.41;;;34.12;49.66
10706;BME280;5404;42.656;23.336;2022-07-05T12:50:50;94648.31;;;34.32;48.49
10706;BME280;5404;42.656;23.336;2022-07-05T12:53:16;94642.38;;;33.99;49.55
10706;BME280;5404;42.656;23.336;2022-07-05T12:56:11;94643.41;;;33.93;52.69
10706;BME280;5404;42.656;23.336;2022-07-05T12:59:02;94638.16;;;34.29;49.25
10706;BME280;5404;42.656;23.336;2022-07-05T13:01:30;94619.50;;;34.42;50.93
10706;BME280;5404;42.656;23.336;2022-07-05T13:04:17;94611.63;;;33.97;51.44
10706;BME280;5404;42.656;23.336;2022-07-05T13:06:58;94625.28;;;34.13;51.17
10706;BME280;5404;42.656;23.336;2022-07-05T13:09:51;94623.25;;;34.48;51.62
10706;BME280;5404;42.656;23.336;2022-07-05T13:12:20;94618.25;;;34.65;49.57
10706;BME280;5404;42.656;23.336;2022-07-05T13:14:52;94617.53;;;34.73;49.54
10706;BME280;5404;42.656;23.336;2022-07-05T13:17:21;94612.63;;;34.47;50.31
10706;BME280;5404;42.656;23.336;2022-07-05T13:19:48;94610.47;;;33.73;50.36